Time;durP1;ratioP1;P1;durP2;ratioP2;P2;SDS_P1;SDS_P2;PMS_P1;PMS_P2;Temp;Humidity;BMP_temperature;BMP_pressure;BME280_temperature;BME280_humidity;BME280_pressure;Samples;Min_cycle;Max_cycle;Signal;HPM_P1;HPM_P2
2022/05/15 00:01:10;;;;;;;11.43;5.40;;;11.10;99.90;;;;;;5122940;27;20247;-60
2022/05/15 00:03:40;;;;;;;13.00;6.07;;;11.00;99.90;;;;;;5120234;27;20633;-59
2022/05/15 00:06:08;;;;;;;9.97;5.57;;;11.00;99.90;;;;;;5122879;27;20247;-59
2022/05/15 00:08:38;;;;;;;10.23;5.23;;;10.90;99.90;;;;;;5121189;27;20321;-59
2022/05/15 00:11:10;;;;;;;9.87;4.90;;;10.90;99.90;;;;;;5122242;27;20320;-59
2022/05/15 00:13:39;;;;;;;12.63;5.23;;;10.90;99.90;;;;;;5120074;27;20359;-59
2022/05/15 00:16:07;;;;;;;10.37;4.20;;;10.90;99.90;;;;;;5122067;27;20231;-60
2022/05/15 00:18:35;;;;;;;10.73;4.60;;;10.90;99.90;;;;;;5121850;27;20243;-59
2022/05/15 00:21:03;;;;;;;8.90;5.20;;;10.80;99.90;;;;;;5122297;27;20232;-59
2022/05/15 00:23:31;;;;;;;10.30;4.27;;;10.90;99.90;;;;;;5119296;27;20591;-59
2022/05/15 00:26:00;;;;;;;8.80;4.37;;;10.80;99.90;;;;;;5121313;27;20242;-59
2022/05/15 00:28:29;;;;;;;11.50;4.60;;;10.90;99.90;;;;;;5121593;27;20264;-59
2022/05/15 00:30:58;;;;;;;15.77;4.93;;;10.80;99.90;;;;;;5121836;27;20999;-60
2022/05/15 00:33:26;;;;;;;10.70;4.63;;;10.80;99.90;;;;;;5119845;27;20231;-59
2022/05/15 00:35:54;;;;;;;9.80;4.50;;;10.80;99.90;;;;;;5121661;27;20358;-59
2022/05/15 00:38:22;;;;;;;11.03;4.77;;;10.70;99.90;;;;;;5121591;27;20227;-59
2022/05/15 00:40:51;;;;;;;7.93;4.20;;;10.70;99.90;;;;;;5122059;27;20244;-60
2022/05/15 00:43:37;;;;;;;10.37;4.77;;;10.70;99.90;;;;;;5120032;27;20254;-60
2022/05/15 00:46:08;;;;;;;9.00;4.37;;;10.70;99.90;;;;;;5102980;28;20874;-59
2022/05/15 00:48:36;;;;;;;10.27;4.83;;;10.60;99.90;;;;;;5123734;27;20329;-58
2022/05/15 00:51:12;;;;;;;13.07;4.77;;;10.60;99.90;;;;;;5112673;27;21243;-59
2022/05/15 00:53:42;;;;;;;9.63;4.00;;;10.60;99.90;;;;;;5122855;27;20269;-60
2022/05/15 00:56:13;;;;;;;10.17;4.50;;;10.60;99.90;;;;;;5125394;27;20595;-60
2022/05/15 00:58:49;;;;;;;8.50;4.50;;;10.60;99.90;;;;;;5125960;27;20649;-58
2022/05/15 01:01:19;;;;;;;13.73;4.63;;;10.50;99.90;;;;;;5125882;27;20238;-59
2022/05/15 01:03:48;;;;;;;10.40;4.37;;;10.40;99.90;;;;;;5110415;27;20592;-59
2022/05/15 01:06:16;;;;;;;11.90;4.83;;;10.40;99.90;;;;;;5112304;27;20237;-59
2022/05/15 01:08:45;;;;;;;8.57;4.13;;;10.40;99.90;;;;;;5109211;27;20249;-59
2022/05/15 01:11:18;;;;;;;10.43;4.50;;;10.40;99.90;;;;;;5107085;27;20243;-59
2022/05/15 01:13:50;;;;;;;10.23;4.80;;;10.50;99.90;;;;;;5106629;27;20238;-59
2022/05/15 01:16:22;;;;;;;10.47;4.60;;;10.40;99.90;;;;;;5124880;27;20303;-60
2022/05/15 01:18:54;;;;;;;11.33;4.40;;;10.40;99.90;;;;;;5125143;27;20227;-59
2022/05/15 01:21:27;;;;;;;12.20;4.77;;;10.40;99.90;;;;;;5110433;27;20264;-60
2022/05/15 01:23:57;;;;;;;10.13;4.80;;;10.30;99.90;;;;;;5109608;27;20241;-59
2022/05/15 01:26:27;;;;;;;16.53;5.20;;;10.30;99.90;;;;;;5125134;27;20245;-60
2022/05/15 01:28:57;;;;;;;10.37;4.83;;;10.30;99.90;;;;;;5107959;27;20315;-58
2022/05/15 01:31:26;;;;;;;11.87;4.67;;;10.30;99.90;;;;;;5109348;27;20246;-60
2022/05/15 01:33:55;;;;;;;9.00;4.30;;;10.20;99.90;;;;;;5106246;27;20304;-59
2022/05/15 01:36:25;;;;;;;8.97;4.43;;;10.20;99.90;;;;;;5125346;27;20579;-60
2022/05/15 01:38:54;;;;;;;9.07;5.00;;;10.20;99.90;;;;;;5107892;27;20312;-60
2022/05/15 01:41:24;;;;;;;8.63;4.27;;;10.10;99.90;;;;;;5109930;27;20319;-59
2022/05/15 01:43:53;;;;;;;8.80;4.77;;;10.10;99.90;;;;;;5121843;27;20235;-60
2022/05/15 01:46:27;;;;;;;10.97;4.63;;;10.00;99.90;;;;;;5108248;27;20258;-59
2022/05/15 01:48:59;;;;;;;8.37;4.20;;;10.00;99.90;;;;;;5124774;27;20231;-59
2022/05/15 01:51:30;;;;;;;8.07;3.93;;;10.10;99.90;;;;;;5108787;27;20288;-59
2022/05/15 01:53:59;;;;;;;10.47;4.80;;;10.00;99.90;;;;;;5126144;27;20254;-59
2022/05/15 01:56:27;;;;;;;9.33;4.20;;;10.00;99.90;;;;;;5124707;27;20702;-59
2022/05/15 01:58:57;;;;;;;9.17;4.37;;;10.00;99.90;;;;;;5108760;27;20230;-59
2022/05/15 02:01:25;;;;;;;8.07;4.40;;;9.90;99.90;;;;;;5107925;27;20325;-59
2022/05/15 02:03:53;;;;;;;7.37;4.27;;;9.90;99.90;;;;;;5105511;27;20249;-59
2022/05/15 02:06:22;;;;;;;9.70;4.20;;;10.00;99.90;;;;;;5106446;27;20246;-60
2022/05/15 02:08:52;;;;;;;9.80;4.67;;;10.00;99.90;;;;;;5124913;27;20234;-59
2022/05/15 02:11:22;;;;;;;10.17;5.00;;;10.00;99.90;;;;;;5108736;27;20237;-59
2022/05/15 02:13:51;;;;;;;8.57;4.33;;;9.90;99.90;;;;;;5105862;27;20239;-59
2022/05/15 02:16:19;;;;;;;13.37;4.57;;;9.90;99.90;;;;;;5124356;27;20248;-59
2022/05/15 02:18:48;;;;;;;9.93;4.70;;;9.90;99.90;;;;;;5124839;27;20264;-59
2022/05/15 02:21:16;;;;;;;10.73;4.80;;;9.80;99.90;;;;;;5092616;27;20235;-60
2022/05/15 02:23:44;;;;;;;9.27;4.40;;;9.80;99.90;;;;;;5093368;28;20342;-59
2022/05/15 02:26:13;;;;;;;10.70;5.10;;;9.90;99.90;;;;;;5101826;27;20250;-59
2022/05/15 02:28:42;;;;;;;10.00;4.90;;;9.90;99.90;;;;;;5108141;27;20231;-58
2022/05/15 02:31:11;;;;;;;10.17;4.83;;;10.10;99.90;;;;;;5106691;27;20258;-59
2022/05/15 02:33:39;;;;;;;9.07;5.00;;;10.00;99.90;;;;;;5122133;27;20234;-58
2022/05/15 02:36:07;;;;;;;9.23;4.57;;;9.90;99.90;;;;;;5124180;27;20247;-59
2022/05/15 02:38:37;;;;;;;9.53;4.83;;;9.80;99.90;;;;;;5106468;27;20238;-59
2022/05/15 02:41:05;;;;;;;9.10;5.13;;;9.70;99.90;;;;;;5123892;27;20746;-58
2022/05/15 02:43:35;;;;;;;10.50;4.93;;;9.70;99.90;;;;;;5121779;27;20231;-60
2022/05/15 02:46:04;;;;;;;9.37;4.93;;;9.60;99.90;;;;;;5107390;27;20245;-59
2022/05/15 02:51:18;;;;;;;10.97;4.77;;;9.70;99.90;;;;;;5123940;27;20243;-58
2022/05/15 02:53:47;;;;;;;10.23;5.23;;;9.80;99.90;;;;;;5120354;27;20589;-58
2022/05/15 02:56:19;;;;;;;17.70;6.20;;;9.70;99.90;;;;;;5108638;27;20246;-59
2022/05/15 02:58:49;;;;;;;19.33;6.50;;;9.80;99.90;;;;;;5105123;27;20242;-59
2022/05/15 03:01:17;;;;;;;21.53;5.90;;;9.80;99.90;;;;;;5110823;27;20234;-59
2022/05/15 03:03:46;;;;;;;18.47;7.43;;;9.80;99.90;;;;;;5121774;27;20934;-59
2022/05/15 03:06:15;;;;;;;18.33;6.83;;;9.70;99.90;;;;;;5123467;27;20230;-60
2022/05/15 03:08:46;;;;;;;17.27;7.33;;;9.60;99.90;;;;;;5124100;27;20242;-59
2022/05/15 03:11:16;;;;;;;18.73;6.87;;;9.60;99.90;;;;;;5104330;27;20678;-59
2022/05/15 03:13:44;;;;;;;21.40;7.50;;;9.60;99.90;;;;;;5121277;27;20249;-60
2022/05/15 03:16:15;;;;;;;21.23;7.07;;;9.70;99.90;;;;;;5123603;27;20247;-60
2022/05/15 03:18:45;;;;;;;23.10;7.77;;;9.60;99.90;;;;;;5123090;27;20583;-59
2022/05/15 03:21:28;;;;;;;25.07;8.07;;;9.50;99.90;;;;;;5123622;27;20245;-59
2022/05/15 03:23:59;;;;;;;21.50;8.17;;;9.50;99.90;;;;;;5120671;27;20241;-58
2022/05/15 03:26:29;;;;;;;19.43;7.70;;;9.40;99.90;;;;;;5110620;27;20252;-59
2022/05/15 03:28:57;;;;;;;22.30;8.50;;;9.40;99.90;;;;;;5104666;27;20238;-59
2022/05/15 03:31:27;;;;;;;13.50;6.37;;;9.50;99.90;;;;;;5122198;27;20266;-60
2022/05/15 03:33:55;;;;;;;19.40;7.50;;;9.50;99.90;;;;;;5120306;27;20697;-58
2022/05/15 03:36:24;;;;;;;19.27;8.43;;;9.40;99.90;;;;;;5121903;27;20360;-60
2022/05/15 03:38:52;;;;;;;22.00;9.80;;;9.40;99.90;;;;;;5107903;27;20241;-59
2022/05/15 03:41:21;;;;;;;19.97;8.43;;;9.50;99.90;;;;;;5109862;27;20239;-59
2022/05/15 03:43:49;;;;;;;19.67;9.67;;;9.60;99.90;;;;;;5121360;27;20226;-59
2022/05/15 03:46:17;;;;;;;16.73;8.37;;;9.60;99.90;;;;;;5110384;27;20238;-58
2022/05/15 03:48:47;;;;;;;18.57;9.07;;;9.50;99.90;;;;;;5110403;27;20333;-60
2022/05/15 03:51:16;;;;;;;17.37;8.83;;;9.50;99.90;;;;;;5108956;27;20264;-59
2022/05/15 03:53:44;;;;;;;16.53;9.27;;;9.50;99.90;;;;;;5122061;27;20304;-59
2022/05/15 03:56:12;;;;;;;16.47;8.70;;;9.50;99.90;;;;;;5124242;27;20246;-58
2022/05/15 03:58:41;;;;;;;13.57;7.70;;;9.40;99.90;;;;;;5123747;27;20241;-60
2022/05/15 04:01:09;;;;;;;12.33;8.13;;;9.50;99.90;;;;;;5123403;27;20242;-58
2022/05/15 04:03:39;;;;;;;11.53;8.13;;;9.60;99.90;;;;;;5104822;27;20619;-58
2022/05/15 04:06:08;;;;;;;11.73;6.10;;;9.40;99.90;;;;;;5109415;27;20245;-58
2022/05/15 04:08:37;;;;;;;13.33;6.63;;;9.50;99.90;;;;;;5106908;27;20241;-58
2022/05/15 04:11:05;;;;;;;9.90;6.70;;;9.50;99.90;;;;;;5122431;27;20691;-59
2022/05/15 04:13:33;;;;;;;9.83;6.43;;;9.50;99.90;;;;;;5103422;27;20230;-59
2022/05/15 04:16:01;;;;;;;11.83;8.10;;;9.50;99.90;;;;;;5121637;27;20323;-58
2022/05/15 04:18:30;;;;;;;11.17;7.87;;;9.50;99.90;;;;;;5120517;27;20261;-59
2022/05/15 04:20:58;;;;;;;10.33;6.80;;;9.60;99.90;;;;;;5121665;27;20241;-59
2022/05/15 04:23:27;;;;;;;11.30;8.03;;;9.60;99.90;;;;;;5100948;27;20238;-59
2022/05/15 04:25:56;;;;;;;12.23;7.67;;;9.50;99.90;;;;;;5121751;27;20743;-59
2022/05/15 04:28:24;;;;;;;12.97;8.00;;;9.50;99.90;;;;;;5122745;27;20325;-58
2022/05/15 04:30:52;;;;;;;8.93;6.53;;;9.50;99.90;;;;;;5123565;27;20234;-58
2022/05/15 04:33:21;;;;;;;9.60;6.93;;;9.50;99.90;;;;;;5120749;27;20724;-59
2022/05/15 04:35:49;;;;;;;11.43;7.17;;;9.60;99.90;;;;;;5122788;27;20314;-59
2022/05/15 04:38:17;;;;;;;11.43;7.10;;;9.70;99.90;;;;;;5122351;27;20230;-59
2022/05/15 04:40:46;;;;;;;9.57;7.30;;;9.70;99.90;;;;;;5122121;27;20570;-58
2022/05/15 04:43:14;;;;;;;8.00;6.50;;;9.70;99.90;;;;;;5120506;27;20294;-59
2022/05/15 04:45:43;;;;;;;9.10;7.17;;;9.80;99.90;;;;;;5122073;27;20735;-58
2022/05/15 04:48:11;;;;;;;7.97;6.30;;;9.90;99.90;;;;;;5122574;27;20253;-60
2022/05/15 04:50:40;;;;;;;8.40;6.77;;;9.90;99.90;;;;;;5123030;27;20234;-58
2022/05/15 04:53:08;;;;;;;8.63;7.13;;;10.00;99.90;;;;;;5118926;28;20650;-59
2022/05/15 04:55:36;;;;;;;8.53;7.10;;;10.10;99.90;;;;;;5121831;27;20686;-59
2022/05/15 04:58:06;;;;;;;9.43;7.00;;;10.20;99.90;;;;;;5121756;27;20242;-59
2022/05/15 05:00:34;;;;;;;9.53;7.67;;;10.20;99.90;;;;;;5121624;27;20233;-59
2022/05/15 05:03:02;;;;;;;8.97;7.33;;;10.10;99.90;;;;;;5119000;27;20644;-58
2022/05/15 05:05:30;;;;;;;8.13;7.33;;;10.10;99.90;;;;;;5121738;27;20229;-59
2022/05/15 05:07:58;;;;;;;7.70;6.90;;;10.20;99.90;;;;;;5122464;28;20247;-60
2022/05/15 05:10:27;;;;;;;7.50;6.53;;;10.20;99.90;;;;;;5122138;27;20254;-59
2022/05/15 05:12:55;;;;;;;7.83;7.03;;;10.40;99.90;;;;;;5118951;27;20278;-60
2022/05/15 05:15:24;;;;;;;8.57;7.67;;;10.50;99.90;;;;;;5122072;27;20231;-60
2022/05/15 05:17:52;;;;;;;8.30;7.50;;;10.40;99.90;;;;;;5121095;27;20326;-60
2022/05/15 05:20:21;;;;;;;8.77;7.87;;;10.50;99.90;;;;;;5122286;27;20231;-59
2022/05/15 05:22:49;;;;;;;11.63;7.63;;;10.50;99.90;;;;;;5120267;27;20244;-60
2022/05/15 05:25:18;;;;;;;8.93;7.17;;;10.70;99.90;;;;;;5122042;27;20240;-58
2022/05/15 05:27:46;;;;;;;8.20;7.17;;;10.70;99.90;;;;;;5121571;27;20249;-59
2022/05/15 05:30:17;;;;;;;7.07;6.40;;;10.90;99.90;;;;;;5121645;27;20235;-58
2022/05/15 05:32:48;;;;;;;8.03;7.23;;;11.10;99.90;;;;;;5117866;28;20247;-60
2022/05/15 05:35:18;;;;;;;8.80;7.93;;;11.10;99.90;;;;;;5124162;27;20250;-60
2022/05/15 05:37:47;;;;;;;7.80;7.10;;;11.20;99.90;;;;;;5125444;27;20745;-59
2022/05/15 05:40:15;;;;;;;9.07;8.27;;;11.30;99.90;;;;;;5125333;27;20279;-58
2022/05/15 05:42:44;;;;;;;8.20;7.40;;;11.40;99.90;;;;;;5122603;27;20322;-59
2022/05/15 05:45:13;;;;;;;9.00;7.43;;;11.60;99.90;;;;;;5124734;27;20247;-58
2022/05/15 05:47:41;;;;;;;10.50;8.07;;;11.70;99.90;;;;;;5124518;27;20238;-59
2022/05/15 05:50:12;;;;;;;8.93;7.77;;;11.90;99.90;;;;;;5124454;27;20348;-59
2022/05/15 05:52:41;;;;;;;8.37;7.33;;;12.00;99.90;;;;;;5122192;27;20236;-60
2022/05/15 05:55:14;;;;;;;9.17;7.90;;;12.10;99.90;;;;;;5124698;27;20251;-59
2022/05/15 05:57:43;;;;;;;8.47;7.47;;;12.30;99.90;;;;;;5124378;27;20235;-59
2022/05/15 06:00:14;;;;;;;9.50;7.63;;;12.50;99.90;;;;;;5124297;27;20639;-58
2022/05/15 06:02:43;;;;;;;9.03;6.67;;;12.60;99.90;;;;;;5122260;27;20248;-58
2022/05/15 06:05:12;;;;;;;9.03;7.07;;;12.90;99.90;;;;;;5124443;27;20240;-58
2022/05/15 06:07:40;;;;;;;9.10;7.17;;;13.20;99.90;;;;;;5125519;27;20691;-59
2022/05/15 06:10:13;;;;;;;7.83;6.77;;;13.40;99.90;;;;;;5125875;27;20244;-60
2022/05/15 06:12:42;;;;;;;7.93;7.03;;;13.50;99.90;;;;;;5123334;27;20260;-59
2022/05/15 06:15:11;;;;;;;8.77;7.27;;;13.90;99.90;;;;;;5124963;27;20236;-59
2022/05/15 06:17:39;;;;;;;8.37;6.30;;;14.10;99.90;;;;;;5124249;27;20323;-59
2022/05/15 06:20:10;;;;;;;8.57;6.53;;;14.40;99.90;;;;;;5124137;27;20596;-61
2022/05/15 06:22:41;;;;;;;9.33;6.23;;;14.50;99.90;;;;;;5121928;27;20782;-60
2022/05/15 06:25:10;;;;;;;8.13;5.73;;;14.70;99.90;;;;;;5123683;27;20331;-59
2022/05/15 06:27:39;;;;;;;10.17;6.13;;;14.90;99.90;;;;;;5123675;27;20244;-59
2022/05/15 06:30:09;;;;;;;11.43;6.77;;;15.20;99.90;;;;;;5122712;27;20314;-60
2022/05/15 06:32:38;;;;;;;12.30;6.53;;;15.30;99.90;;;;;;5121518;27;20277;-60
2022/05/15 06:35:07;;;;;;;11.80;6.60;;;15.50;99.90;;;;;;5123061;27;20802;-59
2022/05/15 06:37:36;;;;;;;9.97;6.47;;;15.80;99.90;;;;;;5123436;27;20257;-59
2022/05/15 06:40:07;;;;;;;13.57;7.13;;;16.00;99.90;;;;;;5124147;27;20831;-58
2022/05/15 06:42:36;;;;;;;10.93;6.50;;;16.00;99.90;;;;;;5121202;27;20225;-59
2022/05/15 06:45:06;;;;;;;13.93;5.90;;;16.20;99.90;;;;;;5105785;27;20233;-60
2022/05/15 06:47:36;;;;;;;10.37;5.77;;;16.30;99.90;;;;;;5122869;27;20241;-59
2022/05/15 06:50:04;;;;;;;12.80;6.33;;;16.60;99.90;;;;;;5123958;27;20241;-58
2022/05/15 06:52:36;;;;;;;12.23;6.37;;;16.80;99.90;;;;;;5122002;27;20237;-59
2022/05/15 06:55:08;;;;;;;14.27;6.20;;;16.90;99.90;;;;;;5123414;27;20245;-61
2022/05/15 06:57:36;;;;;;;12.00;5.77;;;17.00;99.90;;;;;;5123145;27;21046;-59
2022/05/15 07:00:09;;;;;;;12.20;5.50;;;17.10;99.90;;;;;;5122704;27;20245;-59
2022/05/15 07:02:38;;;;;;;12.43;5.80;;;17.00;99.90;;;;;;5121155;27;20328;-59
2022/05/15 07:05:07;;;;;;;13.27;5.87;;;17.20;99.90;;;;;;5123077;27;20237;-59
2022/05/15 07:07:35;;;;;;;14.20;5.27;;;17.20;99.90;;;;;;5123020;27;20248;-61
2022/05/15 07:10:03;;;;;;;12.00;5.57;;;17.30;99.90;;;;;;5123448;27;20244;-59
2022/05/15 07:12:32;;;;;;;13.87;5.27;;;17.70;99.90;;;;;;5121149;27;20236;-60
2022/05/15 07:15:01;;;;;;;10.97;5.40;;;18.00;99.90;;;;;;5121991;27;20241;-59
2022/05/15 07:17:29;;;;;;;12.47;5.63;;;18.10;99.90;;;;;;5122540;27;20774;-60
2022/05/15 07:19:58;;;;;;;9.87;4.07;;;18.20;99.90;;;;;;5121468;27;20269;-59
2022/05/15 07:22:26;;;;;;;14.80;5.00;;;18.10;99.90;;;;;;5122113;27;20343;-60
2022/05/15 07:24:54;;;;;;;11.00;4.13;;;18.20;99.90;;;;;;5122447;27;20245;-59
2022/05/15 07:27:22;;;;;;;10.60;3.80;;;18.50;99.90;;;;;;5123024;27;20233;-58
2022/05/15 07:29:51;;;;;;;11.63;4.37;;;18.70;99.90;;;;;;5122924;27;20286;-59
2022/05/15 07:32:19;;;;;;;9.20;4.38;;;19.10;99.90;;;;;;5119107;27;20777;-61
2022/05/15 07:34:47;;;;;;;12.67;5.07;;;19.20;99.90;;;;;;5118927;27;20365;-61
2022/05/15 07:37:17;;;;;;;8.13;4.60;;;19.40;99.90;;;;;;5121306;27;20235;-64
2022/05/15 07:39:45;;;;;;;11.53;4.70;;;19.70;99.90;;;;;;5121683;27;20687;-63
2022/05/15 07:42:14;;;;;;;10.23;4.57;;;19.90;99.90;;;;;;5121566;27;20238;-63
2022/05/15 07:44:42;;;;;;;11.67;5.00;;;20.10;99.90;;;;;;5119265;27;20233;-64
2022/05/15 07:47:11;;;;;;;12.27;4.63;;;20.20;99.90;;;;;;5121001;27;20232;-64
2022/05/15 07:49:44;;;;;;;13.50;5.23;;;20.30;99.90;;;;;;5121624;27;20335;-65
2022/05/15 07:52:12;;;;;;;8.07;4.70;;;20.30;99.90;;;;;;5119638;27;20228;-62
2022/05/15 07:54:40;;;;;;;6.40;3.70;;;20.50;99.90;;;;;;5119318;27;20243;-64
2022/05/15 07:57:09;;;;;;;9.73;4.17;;;20.50;99.90;;;;;;5118341;27;20235;-62
2022/05/15 07:59:37;;;;;;;9.23;3.40;;;20.80;99.90;;;;;;5120503;27;20246;-64
2022/05/15 08:02:06;;;;;;;6.93;3.80;;;20.90;99.90;;;;;;5122115;27;20232;-62
2022/05/15 08:08:00;;;;;;;5.27;3.20;;;21.00;99.90;;;;;;5119660;27;20246;-63
2022/05/15 08:10:12;;;;;;;6.17;2.53;;;21.00;99.90;;;;;;5119425;27;20656;-63
2022/05/15 08:12:40;;;;;;;5.57;2.37;;;21.10;99.90;;;;;;5117172;27;20603;-63
2022/05/15 08:15:10;;;;;;;6.57;2.80;;;21.10;99.90;;;;;;5121537;27;20232;-63
2022/05/15 08:17:38;;;;;;;6.33;2.70;;;21.30;99.90;;;;;;5121199;27;20229;-64
2022/05/15 08:25:40;;;;;;;8.30;3.10;;;21.50;99.90;;;;;;5104937;27;20241;-64
2022/05/15 08:28:08;;;;;;;4.77;2.10;;;21.60;99.90;;;;;;5119614;27;20255;-63
2022/05/15 08:30:37;;;;;;;7.57;2.37;;;21.70;99.90;;;;;;5121775;27;20243;-63
2022/05/15 08:33:05;;;;;;;6.60;2.50;;;21.80;99.90;;;;;;5119738;27;20272;-63
2022/05/15 08:35:35;;;;;;;6.90;2.40;;;22.20;99.90;;;;;;5121679;27;20244;-63
2022/05/15 08:38:03;;;;;;;5.87;2.30;;;22.10;99.90;;;;;;5121787;27;20237;-62
2022/05/15 08:40:44;;;;;;;6.73;2.53;;;22.30;99.90;;;;;;5121902;27;20336;-62
2022/05/15 08:43:20;;;;;;;5.70;2.40;;;22.50;99.90;;;;;;5119484;27;20772;-65
2022/05/15 08:46:07;;;;;;;6.83;2.50;;;22.30;99.90;;;;;;5121546;28;20233;-65
2022/05/15 08:48:38;;;;;;;5.20;1.93;;;22.60;99.90;;;;;;5120621;27;20240;-65
2022/05/15 08:51:11;;;;;;;7.47;2.30;;;22.70;99.90;;;;;;5121080;27;20264;-63
2022/05/15 08:53:42;;;;;;;4.77;2.00;;;22.40;99.90;;;;;;5119573;27;20275;-63
2022/05/15 08:56:14;;;;;;;4.07;1.80;;;22.40;99.90;;;;;;5121465;27;20236;-64
2022/05/15 08:58:48;;;;;;;6.20;2.50;;;22.60;99.90;;;;;;5121003;28;20241;-65
2022/05/15 09:01:22;;;;;;;5.47;2.13;;;22.60;99.90;;;;;;5120825;27;20261;-64
2022/05/15 09:03:50;;;;;;;10.27;2.70;;;22.70;99.90;;;;;;5119779;27;20236;-63
2022/05/15 09:06:31;;;;;;;4.23;1.77;;;23.00;99.90;;;;;;5120951;27;20558;-64
2022/05/15 09:09:08;;;;;;;5.10;2.10;;;23.30;99.90;;;;;;5120654;27;20316;-63
2022/05/15 09:11:48;;;;;;;3.33;1.67;;;23.80;99.90;;;;;;5124621;27;20293;-63
2022/05/15 09:14:29;;;;;;;3.73;2.07;;;24.10;99.90;;;;;;5122146;27;22576;-65
2022/05/15 09:17:02;;;;;;;5.73;1.80;;;23.90;99.90;;;;;;5124868;27;20237;-64
2022/05/15 09:19:31;;;;;;;4.30;1.77;;;24.00;99.90;;;;;;5125095;27;20569;-63
2022/05/15 09:22:01;;;;;;;6.43;2.00;;;24.10;99.90;;;;;;5124907;27;20589;-64
2022/05/15 09:24:36;;;;;;;3.70;1.77;;;24.30;99.90;;;;;;5122863;27;20233;-65
2022/05/15 09:27:16;;;;;;;5.00;1.87;;;24.50;99.90;;;;;;5124708;27;20245;-63
2022/05/15 09:29:52;;;;;;;3.83;1.83;;;24.50;99.90;;;;;;5125191;27;20291;-66
2022/05/15 09:32:39;;;;;;;5.30;2.10;;;24.90;99.90;;;;;;5124275;27;20253;-65
2022/05/15 09:35:19;;;;;;;4.77;1.83;;;24.80;99.20;;;;;;5123686;27;20241;-64
2022/05/15 09:40:42;;;;;;;4.37;1.90;;;24.40;99.90;;;;;;5124164;27;20694;-63
2022/05/15 09:43:33;;;;;;;4.37;1.87;;;24.90;99.00;;;;;;5122703;27;20333;-63
2022/05/15 09:46:12;;;;;;;3.77;1.90;;;25.20;98.30;;;;;;5113743;27;20301;-63
2022/05/15 09:48:50;;;;;;;3.87;1.90;;;25.10;96.90;;;;;;5124691;27;20255;-65
2022/05/15 09:51:28;;;;;;;4.67;1.73;;;25.00;99.50;;;;;;5124501;27;20586;-65
2022/05/15 09:53:58;;;;;;;5.47;1.90;;;25.50;97.20;;;;;;5122831;27;20321;-63
2022/05/15 09:56:30;;;;;;;5.03;1.93;;;25.70;99.10;;;;;;5124995;27;20322;-64
2022/05/15 09:59:01;;;;;;;5.10;1.73;;;25.40;95.10;;;;;;5124891;27;20668;-64
2022/05/15 10:01:36;;;;;;;3.23;1.30;;;25.70;97.50;;;;;;5124376;27;20253;-65
2022/05/15 10:04:07;;;;;;;4.77;1.50;;;25.90;96.00;;;;;;5121240;27;20774;-64
2022/05/15 10:06:49;;;;;;;5.10;1.67;;;26.10;96.00;;;;;;5124118;27;20325;-64
2022/05/15 10:09:26;;;;;;;4.97;1.40;;;25.90;95.00;;;;;;5124854;27;20248;-66
2022/05/15 10:12:00;;;;;;;3.80;1.50;;;25.70;94.80;;;;;;5124450;27;20323;-63
2022/05/15 10:14:35;;;;;;;2.97;1.30;;;25.30;94.80;;;;;;5120388;27;20804;-64
2022/05/15 10:17:03;;;;;;;4.13;1.50;;;25.40;95.00;;;;;;5124175;27;20243;-63
2022/05/15 10:19:39;;;;;;;3.63;1.93;;;25.60;93.10;;;;;;5122952;27;20236;-63
2022/05/15 10:22:21;;;;;;;2.90;1.50;;;25.90;95.20;;;;;;5123728;27;20667;-64
2022/05/15 10:25:17;;;;;;;3.60;1.40;;;25.80;93.60;;;;;;5123189;27;20237;-65
2022/05/15 10:27:49;;;;;;;3.50;1.30;;;25.80;90.90;;;;;;5124513;27;20564;-63
2022/05/15 10:30:22;;;;;;;4.73;1.50;;;26.00;93.90;;;;;;5124160;27;20244;-65
2022/05/15 10:32:56;;;;;;;4.23;1.37;;;26.30;93.00;;;;;;5121016;27;20235;-64
2022/05/15 10:35:32;;;;;;;3.13;1.40;;;26.50;92.60;;;;;;5123397;27;20233;-63
2022/05/15 10:38:12;;;;;;;3.37;1.70;;;27.20;93.50;;;;;;5123308;27;20802;-63
2022/05/15 10:40:48;;;;;;;3.23;1.30;;;27.50;91.50;;;;;;5123400;27;20317;-63
2022/05/15 10:43:34;;;;;;;3.93;1.60;;;27.00;90.80;;;;;;5121883;27;20338;-65
2022/05/15 10:46:12;;;;;;;6.33;1.73;;;26.30;90.80;;;;;;5123807;27;20600;-65
2022/05/15 10:48:52;;;;;;;4.37;1.50;;;26.20;91.70;;;;;;5123323;27;20243;-64
2022/05/15 10:51:24;;;;;;;3.70;1.70;;;26.50;91.70;;;;;;5123655;27;20241;-63
2022/05/15 10:57:26;;;;;;;6.90;1.67;;;27.40;90.30;;;;;;5120962;27;20885;-63
2022/05/15 11:00:01;;;;;;;5.63;1.93;;;27.80;91.50;;;;;;5109499;27;20286;-63
2022/05/15 11:03:05;;;;;;;4.43;2.00;;;27.70;90.30;;;;;;5121338;27;20236;-65
2022/05/15 11:05:35;;;;;;;3.93;1.80;;;27.00;90.50;;;;;;5121569;27;20327;-63
2022/05/15 11:08:15;;;;;;;3.73;1.50;;;26.80;90.30;;;;;;5122022;27;20577;-63
2022/05/15 11:10:50;;;;;;;3.90;1.80;;;26.40;89.80;;;;;;5121748;27;20269;-65
2022/05/15 11:13:25;;;;;;;4.57;1.80;;;26.30;90.10;;;;;;5120022;27;21927;-63
2022/05/15 11:16:00;;;;;;;4.30;1.80;;;26.60;90.40;;;;;;5122000;27;20602;-64
2022/05/15 11:18:54;;;;;;;6.73;1.73;;;27.10;90.70;;;;;;5095353;28;20237;-63
2022/05/15 11:21:26;;;;;;;3.23;1.60;;;27.00;89.40;;;;;;5125280;27;20244;-63
2022/05/15 11:23:58;;;;;;;3.53;1.73;;;26.90;89.60;;;;;;5123060;27;20248;-63
2022/05/15 11:26:30;;;;;;;5.03;2.10;;;26.70;90.30;;;;;;5116549;27;20654;-65
2022/05/15 11:29:05;;;;;;;3.73;2.00;;;26.00;88.80;;;;;;5124459;27;20245;-63
2022/05/15 11:31:38;;;;;;;4.70;2.00;;;26.00;90.30;;;;;;5121798;27;20592;-64
2022/05/15 11:34:08;;;;;;;4.27;1.90;;;26.30;90.10;;;;;;5095995;27;20335;-64
2022/05/15 11:36:40;;;;;;;5.20;1.70;;;26.50;89.10;;;;;;5123757;27;20326;-65
2022/05/15 11:39:27;;;;;;;5.57;1.80;;;26.80;90.10;;;;;;5124277;27;21121;-63
2022/05/15 11:42:17;;;;;;;4.53;2.10;;;27.10;89.40;;;;;;5123562;27;20732;-64
2022/05/15 11:44:48;;;;;;;4.90;1.90;;;26.70;88.10;;;;;;5121077;27;20238;-62
2022/05/15 11:47:34;;;;;;;5.10;1.87;;;26.20;90.20;;;;;;5122793;27;20611;-64
2022/05/15 11:50:29;;;;;;;5.20;2.10;;;26.40;91.10;;;;;;5122867;27;20300;-63
2022/05/15 11:53:08;;;;;;;4.37;2.00;;;26.40;91.00;;;;;;5121516;27;20248;-63
2022/05/15 11:55:42;;;;;;;5.30;1.87;;;26.60;91.00;;;;;;5123350;27;20639;-65
2022/05/15 11:58:26;;;;;;;5.00;2.00;;;26.60;90.90;;;;;;5124031;27;20639;-63
2022/05/15 12:01:09;;;;;;;8.83;2.30;;;26.30;90.40;;;;;;5122962;27;20240;-63
2022/05/15 12:03:49;;;;;;;4.60;2.10;;;26.00;90.50;;;;;;5121262;27;20285;-63
2022/05/15 12:06:19;;;;;;;5.57;2.30;;;25.80;91.10;;;;;;5123505;27;20305;-65
2022/05/15 12:08:53;;;;;;;5.97;2.53;;;25.90;92.30;;;;;;5123087;27;20293;-65
2022/05/15 12:11:33;;;;;;;5.10;1.97;;;25.80;91.40;;;;;;5123524;27;20336;-63
2022/05/15 12:14:35;;;;;;;6.93;2.13;;;25.80;92.80;;;;;;5119509;27;20244;-63
2022/05/15 12:17:24;;;;;;;5.20;2.20;;;25.60;92.60;;;;;;5122567;27;20247;-65
2022/05/15 12:20:03;;;;;;;5.47;2.20;;;25.70;93.00;;;;;;5123552;27;20312;-64
2022/05/15 12:22:37;;;;;;;4.43;1.93;;;25.50;92.80;;;;;;5121665;27;20240;-64
2022/05/15 12:25:11;;;;;;;3.97;2.10;;;25.40;93.30;;;;;;5122808;27;20247;-65
2022/05/15 12:27:53;;;;;;;5.53;2.50;;;25.40;92.20;;;;;;5123062;27;20243;-63
2022/05/15 12:30:23;;;;;;;4.77;2.37;;;25.30;93.00;;;;;;5123236;27;20247;-63
2022/05/15 12:33:01;;;;;;;4.53;2.20;;;25.40;93.50;;;;;;5120855;27;20758;-64
2022/05/15 12:35:34;;;;;;;4.53;2.30;;;25.40;92.60;;;;;;5123535;27;20256;-64
2022/05/15 12:38:06;;;;;;;5.80;2.00;;;25.20;92.60;;;;;;5122583;27;20239;-63
2022/05/15 12:40:37;;;;;;;5.80;2.20;;;25.20;92.50;;;;;;5123005;28;20251;-63
2022/05/15 12:43:24;;;;;;;5.20;2.60;;;25.00;93.30;;;;;;5120786;27;20578;-63
2022/05/15 12:45:54;;;;;;;5.77;2.33;;;24.70;91.90;;;;;;5122348;27;20235;-63
2022/05/15 12:48:24;;;;;;;6.23;2.40;;;24.30;92.50;;;;;;5122422;27;20250;-63
2022/05/15 12:51:02;;;;;;;6.27;2.07;;;24.20;92.20;;;;;;5122711;28;20247;-62
2022/05/15 12:53:33;;;;;;;5.20;2.43;;;24.10;93.20;;;;;;5120160;27;20260;-64
2022/05/15 12:56:13;;;;;;;5.60;2.37;;;23.60;92.90;;;;;;5122454;28;20254;-64
2022/05/15 12:58:41;;;;;;;4.87;2.23;;;23.70;95.20;;;;;;5122721;28;20236;-64
2022/05/15 13:01:13;;;;;;;4.67;2.53;;;23.90;93.60;;;;;;5121953;27;20234;-62
2022/05/15 13:03:44;;;;;;;3.70;1.87;;;23.90;94.40;;;;;;5120241;27;20251;-65
2022/05/15 13:06:12;;;;;;;5.57;2.00;;;23.90;94.80;;;;;;5123203;27;20241;-63
2022/05/15 13:08:44;;;;;;;4.00;2.10;;;23.70;93.30;;;;;;5122979;27;20357;-63
2022/05/15 13:11:20;;;;;;;4.90;1.80;;;23.50;93.30;;;;;;5123090;27;20273;-62
2022/05/15 13:13:50;;;;;;;4.37;2.00;;;23.00;93.80;;;;;;5120327;27;20234;-62
2022/05/15 13:16:20;;;;;;;5.93;2.20;;;22.90;93.50;;;;;;5122996;27;20276;-64
2022/05/15 13:18:53;;;;;;;5.57;1.83;;;22.90;93.50;;;;;;5123073;27;20285;-63
2022/05/15 13:21:32;;;;;;;7.17;2.03;;;23.30;93.90;;;;;;5122798;28;20262;-63
2022/05/15 13:24:00;;;;;;;3.93;2.10;;;23.30;93.60;;;;;;5120464;27;20245;-64
2022/05/15 13:26:34;;;;;;;4.00;1.73;;;23.20;94.00;;;;;;5123073;27;20238;-62